Time;durP1;ratioP1;P1;durP2;ratioP2;P2;SDS_P1;SDS_P2;PMS_P1;PMS_P2;Temp;Humidity;BMP_temperature;BMP_pressure;BME280_temperature;BME280_humidity;BME280_pressure;Samples;Min_cycle;Max_cycle;Signal;HPM_P1;HPM_P2
2021/05/11 00:01:08;;;;;;;6.00;3.67;;;14.20;99.90;;;;;;5008604;28;20390;-61
2021/05/11 00:03:34;;;;;;;7.53;3.65;;;14.10;99.90;;;;;;5007987;28;20025;-61
2021/05/11 00:05:59;;;;;;;6.35;3.60;;;14.10;99.90;;;;;;5006508;28;20489;-61
2021/05/11 00:08:25;;;;;;;6.07;3.63;;;14.10;99.90;;;;;;5006592;28;20061;-60
2021/05/11 00:10:51;;;;;;;5.75;3.50;;;14.10;99.90;;;;;;5011603;28;20049;-61
2021/05/11 00:13:16;;;;;;;4.47;3.13;;;14.10;99.90;;;;;;5011199;28;20554;-60
2021/05/11 00:15:42;;;;;;;6.15;3.60;;;14.10;99.90;;;;;;5011048;28;20029;-60
2021/05/11 00:18:09;;;;;;;4.55;3.90;;;14.10;99.90;;;;;;4985236;28;20030;-61
2021/05/11 00:20:35;;;;;;;6.05;3.63;;;14.00;99.90;;;;;;5002694;28;20062;-62
2021/05/11 00:23:00;;;;;;;6.32;3.92;;;14.00;99.90;;;;;;5009251;28;20395;-62
2021/05/11 00:25:26;;;;;;;6.40;4.00;;;14.10;99.90;;;;;;5008886;28;20071;-61
2021/05/11 00:27:51;;;;;;;7.38;3.97;;;14.00;99.90;;;;;;5007771;28;20025;-61
2021/05/11 00:30:17;;;;;;;7.95;4.13;;;14.00;99.90;;;;;;5013101;28;20510;-58
2021/05/11 00:32:43;;;;;;;4.85;4.00;;;14.00;99.90;;;;;;5010101;28;20388;-60
2021/05/11 00:35:09;;;;;;;6.97;4.47;;;13.90;99.90;;;;;;5010146;28;20116;-60
2021/05/11 00:37:36;;;;;;;5.63;4.00;;;13.90;99.90;;;;;;5007740;28;20052;-61
2021/05/11 00:40:03;;;;;;;4.93;4.03;;;13.90;99.90;;;;;;5010016;28;20021;-61
2021/05/11 00:42:28;;;;;;;6.57;4.13;;;13.90;99.90;;;;;;5008566;28;20110;-62
2021/05/11 00:44:54;;;;;;;6.35;4.45;;;13.90;99.90;;;;;;5009832;28;20450;-61
2021/05/11 00:47:19;;;;;;;7.32;4.85;;;13.90;99.90;;;;;;5005376;28;20531;-61
2021/05/11 00:49:45;;;;;;;6.53;4.35;;;13.80;99.90;;;;;;5008210;28;20447;-61
2021/05/11 00:52:10;;;;;;;4.63;4.05;;;13.80;99.90;;;;;;5006967;28;20442;-62
2021/05/11 00:54:36;;;;;;;7.40;4.30;;;13.80;99.90;;;;;;5010201;28;20480;-62
2021/05/11 00:57:04;;;;;;;6.00;4.05;;;13.80;99.90;;;;;;5006014;28;20045;-61
2021/05/11 00:59:30;;;;;;;4.55;3.95;;;13.80;99.90;;;;;;5010293;28;20026;-61
2021/05/11 01:01:58;;;;;;;6.43;4.15;;;13.80;99.90;;;;;;5007203;28;20034;-61
2021/05/11 01:04:24;;;;;;;6.05;4.57;;;13.80;99.90;;;;;;5010866;28;20022;-61
2021/05/11 01:06:50;;;;;;;6.32;4.38;;;13.80;99.90;;;;;;5009183;28;20036;-60
2021/05/11 01:09:16;;;;;;;5.82;4.25;;;13.80;99.90;;;;;;5003154;28;20595;-61
2021/05/11 01:11:43;;;;;;;7.20;4.82;;;13.70;99.90;;;;;;5006435;28;20026;-62
2021/05/11 01:14:09;;;;;;;5.88;4.95;;;13.70;99.90;;;;;;5009349;28;20018;-62
2021/05/11 01:16:35;;;;;;;6.90;5.28;;;13.70;99.90;;;;;;5005512;28;20022;-61
2021/05/11 01:19:08;;;;;;;7.95;5.15;;;13.70;99.90;;;;;;5010324;28;20026;-61
2021/05/11 01:24:24;;;;;;;11.13;4.63;;;13.70;99.90;;;;;;5008169;28;20128;-62
2021/05/11 02:22:50;;;;;;;;;;;13.50;99.90;;;;;;5010655;28;20041;-61
2021/05/11 02:25:16;;;;;;;9.65;6.32;;;13.50;99.90;;;;;;4999995;28;19988;-62
2021/05/11 02:27:43;;;;;;;6.47;5.63;;;13.50;99.90;;;;;;5007057;28;20116;-61
2021/05/11 02:30:10;;;;;;;7.35;6.65;;;13.50;99.90;;;;;;5009669;28;20057;-61
2021/05/11 02:32:39;;;;;;;13.32;7.05;;;13.40;99.90;;;;;;5007313;28;20133;-61
2021/05/11 02:35:06;;;;;;;8.95;7.13;;;13.50;99.90;;;;;;5007103;28;20029;-61
2021/05/11 02:37:32;;;;;;;9.43;7.55;;;13.40;99.90;;;;;;4998666;28;20030;-61
2021/05/11 02:39:58;;;;;;;7.10;6.07;;;13.40;99.90;;;;;;5009226;28;20105;-62
2021/05/11 02:42:23;;;;;;;8.60;6.65;;;13.40;99.90;;;;;;5010354;28;20029;-62
2021/05/11 02:44:49;;;;;;;14.45;6.60;;;13.40;99.90;;;;;;5007315;28;20041;-61
2021/05/11 02:47:15;;;;;;;9.07;6.78;;;13.40;99.90;;;;;;4999031;28;20033;-62
2021/05/11 02:49:45;;;;;;;8.43;6.75;;;13.30;99.90;;;;;;4999701;28;20108;-61
2021/05/11 02:52:12;;;;;;;7.35;6.57;;;13.30;99.90;;;;;;5006576;28;20038;-62
2021/05/11 02:54:37;;;;;;;10.90;7.25;;;13.30;99.90;;;;;;5005259;28;20041;-62
2021/05/11 02:57:04;;;;;;;7.82;6.97;;;13.30;99.90;;;;;;5007237;28;20040;-61
2021/05/11 02:59:30;;;;;;;11.20;7.28;;;13.30;99.90;;;;;;5013264;28;20022;-62
2021/05/11 03:01:56;;;;;;;10.23;7.28;;;13.30;99.90;;;;;;5013149;28;20428;-62
2021/05/11 03:04:21;;;;;;;10.60;8.27;;;13.30;99.90;;;;;;5013470;28;20539;-61
2021/05/11 03:06:47;;;;;;;10.18;8.30;;;13.30;99.90;;;;;;5006341;28;20045;-61
2021/05/11 03:09:13;;;;;;;10.77;6.88;;;13.30;99.90;;;;;;5012967;28;20026;-62
2021/05/11 03:11:39;;;;;;;8.90;7.80;;;13.30;99.90;;;;;;5011241;28;20026;-61
2021/05/11 03:14:05;;;;;;;8.95;7.35;;;13.30;99.90;;;;;;5012774;28;20018;-62
2021/05/11 03:16:33;;;;;;;9.38;6.50;;;13.30;99.90;;;;;;5011455;28;20491;-61
2021/05/11 03:18:58;;;;;;;7.53;6.75;;;13.30;99.90;;;;;;5012583;28;20072;-62
2021/05/11 03:21:25;;;;;;;8.48;6.68;;;13.30;99.90;;;;;;5012579;28;20029;-62
2021/05/11 03:23:50;;;;;;;7.68;6.80;;;13.30;99.90;;;;;;5011318;28;20026;-62
2021/05/11 03:26:16;;;;;;;9.18;6.68;;;13.30;99.90;;;;;;5007658;28;20041;-62
2021/05/11 03:28:42;;;;;;;8.35;6.90;;;13.30;99.90;;;;;;5010032;28;20041;-61
2021/05/11 03:31:07;;;;;;;8.30;6.70;;;13.30;99.90;;;;;;5012779;28;20030;-62
2021/05/11 03:33:33;;;;;;;9.00;7.13;;;13.30;99.90;;;;;;5003249;28;20030;-62
2021/05/11 03:35:58;;;;;;;8.13;6.65;;;13.30;99.90;;;;;;5010618;28;20030;-60
2021/05/11 03:38:24;;;;;;;8.07;6.57;;;13.30;99.90;;;;;;5008733;28;20058;-61
2021/05/11 03:40:51;;;;;;;10.63;8.30;;;13.30;99.90;;;;;;5011582;28;20018;-61
2021/05/11 03:43:21;;;;;;;9.07;7.22;;;13.30;99.90;;;;;;5007999;28;20030;-61
2021/05/11 03:45:53;;;;;;;8.35;7.30;;;13.30;99.90;;;;;;5012567;28;20026;-61
2021/05/11 03:48:18;;;;;;;10.43;7.75;;;13.30;99.90;;;;;;5008366;28;20135;-61
2021/05/11 03:50:44;;;;;;;7.90;7.05;;;13.30;99.90;;;;;;5011939;28;20189;-62
2021/05/11 03:53:09;;;;;;;12.30;7.80;;;13.30;99.90;;;;;;5006318;28;20030;-61
2021/05/11 03:55:35;;;;;;;8.00;6.60;;;13.20;99.90;;;;;;5012338;28;20030;-61
2021/05/11 03:58:01;;;;;;;9.00;7.38;;;13.30;99.90;;;;;;5006735;28;20080;-61
2021/05/11 04:00:27;;;;;;;7.38;6.60;;;13.20;99.90;;;;;;5019874;28;20400;-62
2021/05/11 04:02:52;;;;;;;8.88;6.07;;;13.20;99.90;;;;;;5027455;28;20652;-61
2021/05/11 04:05:20;;;;;;;9.13;6.20;;;13.30;99.90;;;;;;5015786;28;20045;-61
2021/05/11 04:07:47;;;;;;;7.90;7.05;;;13.30;99.90;;;;;;5020781;28;20589;-62
2021/05/11 04:18:10;;;;;;;8.77;7.10;;;13.30;99.90;;;;;;5019060;28;20076;-62
2021/05/11 04:20:36;;;;;;;10.45;7.03;;;13.30;99.90;;;;;;5014076;28;20439;-62
2021/05/11 04:23:02;;;;;;;9.23;7.57;;;13.30;99.90;;;;;;5004399;28;20494;-62
2021/05/11 04:25:27;;;;;;;8.35;7.03;;;13.40;99.90;;;;;;5011495;28;20038;-61
2021/05/11 04:27:53;;;;;;;8.80;7.75;;;13.40;99.90;;;;;;5012030;28;20072;-62
2021/05/11 04:30:19;;;;;;;9.57;7.38;;;13.40;99.90;;;;;;5008961;28;20030;-60
2021/05/11 04:32:45;;;;;;;8.63;6.78;;;13.40;99.90;;;;;;5009622;28;20030;-62
2021/05/11 04:35:12;;;;;;;6.80;6.10;;;13.50;99.90;;;;;;5011184;28;20030;-61
2021/05/11 04:37:37;;;;;;;7.07;6.30;;;13.50;99.90;;;;;;5011568;28;20072;-61
2021/05/11 04:40:03;;;;;;;9.75;6.80;;;13.50;99.90;;;;;;5003559;28;20022;-62
2021/05/11 04:42:29;;;;;;;7.40;6.32;;;13.50;99.90;;;;;;5007162;28;20041;-61
2021/05/11 04:44:56;;;;;;;8.48;7.57;;;13.50;99.90;;;;;;5003315;28;20140;-62
2021/05/11 04:47:30;;;;;;;9.55;6.50;;;13.60;99.90;;;;;;5006678;28;20492;-62
2021/05/11 04:49:58;;;;;;;9.70;8.05;;;13.60;99.90;;;;;;5010817;28;20107;-62
2021/05/11 04:52:23;;;;;;;9.57;7.47;;;13.60;99.90;;;;;;5006697;28;20495;-61
2021/05/11 04:54:49;;;;;;;9.38;7.30;;;13.60;99.90;;;;;;5009119;28;20085;-62
2021/05/11 04:57:14;;;;;;;7.60;6.80;;;13.60;99.90;;;;;;5011188;28;20054;-62
2021/05/11 04:59:40;;;;;;;8.70;7.80;;;13.70;99.90;;;;;;5010700;28;20037;-61
2021/05/11 05:02:05;;;;;;;7.70;6.90;;;13.70;99.90;;;;;;5004886;28;20037;-62
2021/05/11 05:04:34;;;;;;;7.00;5.78;;;13.80;99.90;;;;;;5007343;28;20033;-61
2021/05/11 05:07:00;;;;;;;8.77;7.18;;;13.80;99.90;;;;;;5010293;28;20380;-60
2021/05/11 05:09:25;;;;;;;8.65;6.38;;;13.90;99.90;;;;;;5011185;28;20037;-62
2021/05/11 05:11:51;;;;;;;8.05;6.57;;;13.90;99.90;;;;;;5001130;28;20098;-62
2021/05/11 05:14:16;;;;;;;7.75;6.90;;;13.90;99.90;;;;;;5005882;28;20032;-61
2021/05/11 05:16:42;;;;;;;7.57;6.82;;;13.90;99.90;;;;;;5010056;28;20038;-60
2021/05/11 05:19:07;;;;;;;7.78;6.03;;;14.00;99.90;;;;;;5010476;28;20034;-61
2021/05/11 05:21:34;;;;;;;9.32;6.60;;;14.10;99.90;;;;;;5010464;28;20509;-61
2021/05/11 05:24:09;;;;;;;7.07;6.25;;;14.10;99.90;;;;;;5009587;28;20014;-62
2021/05/11 05:26:35;;;;;;;7.47;6.22;;;14.40;99.90;;;;;;5010456;28;20029;-61
2021/05/11 05:29:02;;;;;;;13.77;5.70;;;15.20;99.90;;;;;;5011066;28;20026;-61
2021/05/11 05:31:28;;;;;;;5.53;4.90;;;16.80;99.90;;;;;;5011120;28;20797;-61
2021/05/11 05:33:54;;;;;;;4.97;3.67;;;17.90;99.90;;;;;;5007856;28;20026;-62
2021/05/11 05:36:20;;;;;;;5.60;4.30;;;18.70;99.90;;;;;;5009816;28;20487;-61
2021/05/11 05:38:46;;;;;;;3.88;3.33;;;19.20;99.90;;;;;;5011189;28;20029;-60
2021/05/11 05:41:18;;;;;;;4.50;3.95;;;19.50;99.90;;;;;;4990730;28;20499;-61
2021/05/11 05:43:44;;;;;;;4.10;3.05;;;20.20;99.90;;;;;;5007177;28;20120;-61
2021/05/11 05:46:09;;;;;;;2.88;2.58;;;20.50;99.90;;;;;;5007657;28;20559;-61
2021/05/11 05:48:35;;;;;;;2.97;2.67;;;20.20;99.90;;;;;;5005181;28;20120;-61
2021/05/11 05:51:03;;;;;;;3.03;2.80;;;19.60;99.90;;;;;;5007300;28;20029;-61
2021/05/11 05:53:36;;;;;;;4.55;3.42;;;19.10;99.90;;;;;;5010455;28;20126;-60
2021/05/11 05:56:03;;;;;;;5.53;3.92;;;18.50;99.90;;;;;;5010347;28;20026;-60
2021/05/11 05:58:29;;;;;;;4.68;4.28;;;17.90;99.90;;;;;;5007582;28;20029;-60
2021/05/11 06:00:59;;;;;;;7.28;6.57;;;17.10;99.90;;;;;;4990827;28;20507;-60
2021/05/11 06:04:08;;;;;;;7.32;6.40;;;16.40;99.90;;;;;;5002534;28;20023;-60
2021/05/11 06:06:14;;;;;;;11.07;6.38;;;16.00;99.90;;;;;;5002448;28;20095;-61
2021/05/11 06:08:41;;;;;;;6.90;6.28;;;15.60;99.90;;;;;;5009962;28;20110;-61
2021/05/11 06:11:15;;;;;;;7.80;6.97;;;15.40;99.90;;;;;;5009619;28;20030;-60
2021/05/11 06:13:53;;;;;;;7.70;7.00;;;15.10;99.90;;;;;;5004484;28;20519;-61
2021/05/11 06:19:03;;;;;;;8.48;6.93;;;14.90;99.90;;;;;;5008279;28;20403;-61
2021/05/11 06:21:28;;;;;;;7.85;7.05;;;14.90;99.90;;;;;;5009262;28;20030;-61
2021/05/11 06:23:54;;;;;;;9.85;7.72;;;14.90;99.90;;;;;;5002563;28;20026;-61
2021/05/11 06:26:20;;;;;;;11.18;7.22;;;14.90;99.90;;;;;;5007116;28;20022;-60
2021/05/11 06:28:45;;;;;;;13.13;7.72;;;15.00;99.90;;;;;;4999946;28;20412;-60
2021/05/11 06:31:11;;;;;;;9.55;8.55;;;15.10;99.90;;;;;;5009175;28;20140;-61
2021/05/11 06:33:37;;;;;;;15.93;8.43;;;15.00;99.90;;;;;;5005373;28;20029;-61
2021/05/11 06:36:04;;;;;;;9.40;8.23;;;15.10;99.90;;;;;;4967434;28;20045;-61
2021/05/11 06:38:30;;;;;;;9.75;8.32;;;15.20;99.90;;;;;;5010317;28;20022;-61
2021/05/11 06:40:56;;;;;;;9.90;8.90;;;15.30;99.90;;;;;;5004427;28;20387;-60
2021/05/11 06:43:30;;;;;;;13.57;10.52;;;15.20;99.90;;;;;;5008532;28;20030;-61
2021/05/11 06:53:43;;;;;;;12.27;10.93;;;15.50;99.90;;;;;;5001113;28;20038;-61
2021/05/11 06:56:11;;;;;;;11.68;10.63;;;16.10;99.90;;;;;;5003446;28;20030;-61
2021/05/11 06:58:37;;;;;;;11.00;9.90;;;16.50;99.90;;;;;;5006243;28;20450;-62
2021/05/11 07:01:03;;;;;;;8.57;7.68;;;17.20;99.90;;;;;;5003278;28;20030;-62
2021/05/11 07:03:29;;;;;;;8.40;7.57;;;17.70;99.90;;;;;;5010998;28;20026;-61
2021/05/11 07:05:54;;;;;;;8.43;7.50;;;18.10;99.90;;;;;;5006701;28;20479;-62
2021/05/11 07:11:25;;;;;;;8.52;7.15;;;17.70;99.90;;;;;;4997673;28;20080;-61
2021/05/11 07:13:57;;;;;;;8.18;7.45;;;17.60;99.90;;;;;;5004567;28;20017;-61
2021/05/11 07:16:22;;;;;;;8.70;7.72;;;17.20;99.90;;;;;;5007569;28;20037;-63
2021/05/11 07:18:49;;;;;;;12.55;9.32;;;17.10;99.90;;;;;;5003653;28;20038;-61
2021/05/11 07:21:15;;;;;;;9.85;8.85;;;16.80;99.90;;;;;;5002794;28;20041;-62
2021/05/11 07:23:40;;;;;;;9.18;8.35;;;16.80;99.90;;;;;;5007482;28;20026;-61
2021/05/11 07:31:28;;;;;;;10.10;8.50;;;16.90;99.90;;;;;;5006371;28;20081;-60
2021/05/11 07:33:55;;;;;;;11.30;8.55;;;17.30;99.90;;;;;;5007542;28;20045;-61
2021/05/11 07:36:21;;;;;;;9.73;8.73;;;17.60;99.90;;;;;;5006356;28;20100;-62
2021/05/11 07:38:48;;;;;;;9.93;8.98;;;17.40;99.90;;;;;;5006410;28;20684;-63
2021/05/11 07:41:15;;;;;;;10.10;9.07;;;17.40;99.90;;;;;;5007135;28;20118;-62
2021/05/11 07:43:47;;;;;;;16.17;10.32;;;17.40;99.90;;;;;;4992302;28;20372;-61
2021/05/11 07:46:41;;;;;;;10.77;9.68;;;17.20;99.90;;;;;;5010504;28;20052;-61
2021/05/11 07:52:21;;;;;;;12.23;10.02;;;17.80;99.90;;;;;;5009906;28;20060;-60
2021/05/11 08:03:31;;;;;;;8.77;7.72;;;18.40;99.90;;;;;;5010858;28;20125;-60
2021/05/11 08:17:06;;;;;;;8.75;7.88;;;18.10;99.90;;;;;;5009070;28;20036;-62
2021/05/11 08:30:10;;;;;;;6.57;5.82;;;17.80;99.90;;;;;;5009785;28;20026;-60
2021/05/11 08:32:38;;;;;;;6.35;5.75;;;17.90;99.90;;;;;;5010455;28;20030;-62
2021/05/11 08:35:06;;;;;;;7.18;6.18;;;17.80;99.90;;;;;;4989837;28;20041;-60
2021/05/11 08:37:35;;;;;;;9.68;6.03;;;17.60;99.90;;;;;;5008617;28;20060;-61
2021/05/11 08:40:01;;;;;;;6.75;6.15;;;17.50;99.90;;;;;;5004020;28;20049;-60
2021/05/11 08:42:30;;;;;;;6.88;5.93;;;17.30;99.90;;;;;;4990704;28;20496;-62
2021/05/11 08:45:04;;;;;;;9.32;6.45;;;17.30;99.90;;;;;;5020577;28;20631;-62
2021/05/11 08:47:30;;;;;;;7.28;6.25;;;17.30;99.90;;;;;;5018868;28;20038;-62
2021/05/11 08:49:56;;;;;;;7.03;5.93;;;17.30;99.90;;;;;;5010137;28;20407;-62
2021/05/11 08:52:41;;;;;;;7.15;6.28;;;17.40;99.90;;;;;;5009462;28;20022;-60
2021/05/11 08:55:34;;;;;;;7.55;6.80;;;17.70;99.90;;;;;;5009172;28;20034;-60
2021/05/11 09:06:48;;;;;;;6.13;5.53;;;19.00;99.90;;;;;;5002888;28;20075;-62
2021/05/11 09:25:25;;;;;;;6.18;4.82;;;19.10;99.90;;;;;;5007784;28;20083;-62
2021/05/11 09:28:07;;;;;;;5.88;4.03;;;18.80;99.90;;;;;;5006876;28;20042;-61
2021/05/11 09:58:47;;;;;;;6.20;5.60;;;16.90;99.90;;;;;;5016261;28;20074;-61
2021/05/11 10:10:30;;;;;;;7.05;5.10;;;16.90;99.90;;;;;;5010318;28;20042;-62
2021/05/11 10:48:23;;;;;;;6.75;5.30;;;16.90;99.90;;;;;;5008398;28;20072;-62
2021/05/11 10:50:59;;;;;;;6.47;5.55;;;16.90;99.90;;;;;;5006082;28;20478;-62
2021/05/11 10:53:44;;;;;;;6.18;5.25;;;16.90;99.90;;;;;;5012688;28;20061;-62
2021/05/11 10:59:34;;;;;;;7.00;5.90;;;16.80;99.90;;;;;;5010077;28;20108;-61
2021/05/11 11:02:24;;;;;;;5.78;3.88;;;16.90;99.90;;;;;;5006209;28;20037;-61
2021/05/11 11:04:50;;;;;;;4.78;4.20;;;17.00;99.90;;;;;;5001808;28;20149;-61
2021/05/11 11:07:15;;;;;;;4.70;4.30;;;17.10;99.90;;;;;;5005365;28;20034;-59
2021/05/11 11:09:53;;;;;;;5.85;4.25;;;17.10;99.90;;;;;;5008724;28;20105;-61
2021/05/11 11:12:21;;;;;;;5.30;4.30;;;17.10;99.90;;;;;;5007186;28;20034;-57
2021/05/11 11:14:46;;;;;;;4.30;3.90;;;16.90;99.90;;;;;;5007608;28;20045;-61
2021/05/11 11:17:14;;;;;;;4.75;4.22;;;16.80;99.90;;;;;;5006935;28;20025;-62
2021/05/11 11:19:40;;;;;;;4.30;3.50;;;16.70;99.90;;;;;;5011015;28;20165;-62
2021/05/11 11:25:14;;;;;;;5.13;4.03;;;16.50;99.90;;;;;;4932208;29;20047;-62
2021/05/11 11:27:39;;;;;;;3.83;3.40;;;16.40;99.90;;;;;;4992485;28;20037;-60
2021/05/11 11:30:06;;;;;;;5.63;3.53;;;16.60;99.90;;;;;;5008971;28;20032;-62
2021/05/11 11:32:34;;;;;;;7.47;4.30;;;16.60;99.90;;;;;;5008731;28;20087;-62
2021/05/11 11:35:01;;;;;;;5.78;3.72;;;16.70;99.90;;;;;;5010300;28;20112;-61
2021/05/11 11:37:28;;;;;;;4.78;4.38;;;16.70;99.90;;;;;;5010430;28;20037;-61
2021/05/11 11:39:55;;;;;;;4.90;4.25;;;16.80;99.90;;;;;;5009638;28;20453;-61
2021/05/11 11:42:27;;;;;;;8.02;4.60;;;16.70;99.90;;;;;;5012067;28;20026;-60
2021/05/11 11:45:04;;;;;;;5.85;5.25;;;16.70;99.90;;;;;;4996933;28;20036;-61
2021/05/11 11:47:31;;;;;;;5.68;4.72;;;16.60;99.90;;;;;;4999574;28;20084;-62
2021/05/11 11:50:01;;;;;;;4.85;4.45;;;16.60;99.90;;;;;;4998650;28;20040;-61
2021/05/11 11:52:49;;;;;;;9.07;5.25;;;16.60;99.90;;;;;;4996724;28;20033;-62
2021/05/11 11:57:45;;;;;;;9.98;5.75;;;16.70;99.90;;;;;;5001977;28;20026;-61
2021/05/11 12:00:18;;;;;;;8.13;6.53;;;16.60;99.90;;;;;;4998738;28;20034;-61
2021/05/11 12:03:07;;;;;;;8.23;6.78;;;16.70;99.90;;;;;;4999507;28;20559;-62
2021/05/11 12:05:47;;;;;;;8.20;6.57;;;16.80;99.90;;;;;;5009515;28;20038;-62
2021/05/11 12:10:45;;;;;;;7.65;6.95;;;17.00;99.90;;;;;;5005986;28;20080;-62
2021/05/11 12:13:11;;;;;;;11.38;8.40;;;17.10;99.90;;;;;;5018608;28;20092;-62
2021/05/11 12:15:40;;;;;;;7.47;5.93;;;17.00;99.90;;;;;;5012696;28;20033;-61
2021/05/11 12:18:17;;;;;;;11.68;6.32;;;17.10;99.90;;;;;;5008560;28;20434;-61
2021/05/11 12:20:43;;;;;;;8.05;5.20;;;17.10;99.90;;;;;;5005086;28;20065;-62
2021/05/11 12:23:18;;;;;;;8.65;4.72;;;17.00;99.90;;;;;;5005875;28;20073;-62
2021/05/11 12:25:55;;;;;;;4.35;3.95;;;17.20;99.90;;;;;;5008827;28;20026;-61
2021/05/11 12:28:37;;;;;;;5.20;3.85;;;17.30;99.90;;;;;;5003902;28;20022;-62
2021/05/11 12:31:04;;;;;;;3.83;3.05;;;17.40;99.90;;;;;;5006899;28;20030;-61
2021/05/11 12:33:35;;;;;;;5.82;3.35;;;17.60;99.90;;;;;;5009254;28;20116;-62
2021/05/11 12:36:21;;;;;;;3.53;3.22;;;17.70;99.90;;;;;;5003947;28;20061;-61
2021/05/11 12:38:48;;;;;;;3.20;2.90;;;17.90;99.90;;;;;;5004033;28;20061;-62
2021/05/11 12:41:32;;;;;;;4.43;3.47;;;17.90;99.90;;;;;;5008174;28;20018;-62
2021/05/11 12:43:58;;;;;;;4.57;2.95;;;17.80;99.90;;;;;;5002646;28;20104;-62
2021/05/11 12:46:32;;;;;;;3.60;3.15;;;17.90;99.90;;;;;;5008531;28;20125;-62
2021/05/11 12:49:11;;;;;;;4.00;3.28;;;17.90;99.90;;;;;;5005846;28;20030;-61
2021/05/11 12:51:41;;;;;;;4.13;3.55;;;17.70;99.90;;;;;;5007502;28;20045;-62
2021/05/11 12:54:50;;;;;;;5.68;4.28;;;17.80;99.90;;;;;;5008202;28;20034;-62
2021/05/11 12:57:30;;;;;;;10.18;4.57;;;17.90;99.90;;;;;;5004573;28;20042;-61
2021/05/11 13:00:00;;;;;;;4.88;3.67;;;18.70;99.90;;;;;;5009210;28;20028;-62
2021/05/11 13:02:52;;;;;;;4.78;3.60;;;18.90;99.90;;;;;;5009364;28;20030;-62
2021/05/11 13:16:35;;;;;;;5.15;2.85;;;18.70;99.90;;;;;;4995766;28;20029;-61
2021/05/11 13:22:05;;;;;;;4.13;2.50;;;18.80;99.90;;;;;;5005780;28;20172;-62
2021/05/11 13:32:26;;;;;;;3.10;2.28;;;18.50;99.90;;;;;;5006991;28;20041;-60
2021/05/11 13:34:51;;;;;;;4.10;2.63;;;18.40;99.90;;;;;;5008201;28;20030;-61
2021/05/11 13:37:17;;;;;;;2.05;1.73;;;18.10;99.90;;;;;;5004235;28;20092;-60
2021/05/11 13:39:43;;;;;;;7.07;2.80;;;18.10;99.90;;;;;;5008524;28;20091;-61
2021/05/11 13:42:08;;;;;;;2.25;2.05;;;18.20;99.90;;;;;;5003944;28;20164;-60
2021/05/11 13:44:34;;;;;;;2.40;2.20;;;18.10;99.90;;;;;;4998145;28;20450;-61
2021/05/11 13:46:59;;;;;;;2.65;2.40;;;18.20;99.90;;;;;;4997482;28;20568;-61
2021/05/11 13:49:25;;;;;;;5.15;3.92;;;18.30;99.90;;;;;;4993186;28;20055;-61
2021/05/11 13:51:51;;;;;;;3.50;3.08;;;18.00;99.90;;;;;;4994654;28;20026;-61
2021/05/11 13:54:18;;;;;;;5.78;2.78;;;17.90;99.90;;;;;;4997426;28;20038;-60
2021/05/11 14:04:41;;;;;;;41.80;35.25;;;17.80;99.90;;;;;;4998358;28;20545;-61
2021/05/11 14:07:07;;;;;;;34.80;27.10;;;17.50;99.90;;;;;;4997569;28;20033;-60
2021/05/11 14:09:33;;;;;;;146.98;101.97;;;17.30;99.90;;;;;;4992975;28;20018;-61
2021/05/11 14:11:58;;;;;;;77.18;60.28;;;17.10;99.90;;;;;;4995958;28;20407;-61
2021/05/11 14:14:24;;;;;;;21.27;16.83;;;16.90;99.90;;;;;;4996217;28;20083;-59
2021/05/11 14:16:50;;;;;;;7.07;4.03;;;16.90;99.90;;;;;;4991899;28;20117;-61
2021/05/11 14:19:18;;;;;;;3.20;2.90;;;16.90;99.90;;;;;;5004125;28;20542;-61
2021/05/11 14:21:43;;;;;;;5.68;3.42;;;16.90;99.90;;;;;;5003342;28;20483;-61
2021/05/11 14:24:09;;;;;;;5.10;3.03;;;17.10;99.90;;;;;;5001441;28;20040;-61
2021/05/11 14:26:35;;;;;;;3.13;2.83;;;17.20;99.90;;;;;;4989222;28;20033;-61
2021/05/11 14:29:00;;;;;;;3.85;2.92;;;17.30;99.90;;;;;;5011430;28;20140;-60
2021/05/11 14:31:26;;;;;;;14.43;9.32;;;17.20;99.90;;;;;;5007998;28;20406;-59
2021/05/11 14:33:53;;;;;;;12.13;8.20;;;17.50;99.90;;;;;;5004289;28;20057;-59
2021/05/11 14:36:18;;;;;;;15.00;10.43;;;17.40;99.90;;;;;;5007377;28;20032;-60
2021/05/11 14:38:45;;;;;;;19.95;12.57;;;17.50;99.90;;;;;;5013411;28;20026;-60
2021/05/11 14:41:11;;;;;;;103.10;53.70;;;17.50;99.90;;;;;;5013792;28;20096;-60
2021/05/11 14:43:39;;;;;;;38.53;21.92;;;17.50;99.90;;;;;;5011568;28;20371;-59
2021/05/11 14:46:06;;;;;;;20.13;14.73;;;17.50;99.90;;;;;;5011742;28;20113;-60
2021/05/11 14:48:33;;;;;;;9.90;8.05;;;17.40;99.90;;;;;;5002936;28;20034;-59
2021/05/11 14:50:59;;;;;;;49.15;28.40;;;17.40;99.90;;;;;;5004644;28;20025;-60
2021/05/11 14:53:30;;;;;;;5.20;3.92;;;17.40;99.90;;;;;;5009297;28;20384;-62
2021/05/11 14:55:56;;;;;;;6.18;3.33;;;17.30;99.90;;;;;;5008207;28;20033;-62
2021/05/11 14:58:22;;;;;;;4.25;3.55;;;17.10;99.90;;;;;;5009891;28;20038;-62
2021/05/11 15:00:48;;;;;;;8.50;6.85;;;17.10;99.90;;;;;;5000728;28;20032;-62
2021/05/11 15:03:13;;;;;;;4.72;3.67;;;17.20;99.90;;;;;;5013036;28;20390;-59
2021/05/11 15:05:40;;;;;;;3.83;3.13;;;17.20;99.90;;;;;;5009131;28;20096;-57
2021/05/11 15:08:06;;;;;;;4.05;3.65;;;17.20;99.90;;;;;;5010758;28;20087;-60
2021/05/11 15:10:32;;;;;;;18.30;13.98;;;17.30;99.90;;;;;;5010728;28;20073;-60
2021/05/11 15:12:58;;;;;;;9.20;6.80;;;17.30;99.90;;;;;;5006862;28;20058;-59
2021/05/11 15:15:24;;;;;;;11.90;6.57;;;17.30;99.90;;;;;;5007589;28;20373;-60
2021/05/11 15:20:18;;;;;;;8.93;6.90;;;17.10;99.90;;;;;;5011004;28;20017;-59
2021/05/11 15:22:44;;;;;;;9.82;7.55;;;16.80;99.90;;;;;;5006925;28;20411;-60
2021/05/11 15:25:10;;;;;;;12.60;9.68;;;16.70;99.90;;;;;;5011485;28;20026;-60
2021/05/11 15:27:36;;;;;;;12.55;9.32;;;16.60;99.90;;;;;;5007926;28;20282;-59
2021/05/11 15:30:06;;;;;;;10.88;9.05;;;16.40;99.90;;;;;;5012638;28;20534;-60
2021/05/11 15:32:52;;;;;;;18.85;11.25;;;16.30;99.90;;;;;;5012503;28;20030;-60
2021/05/11 15:35:19;;;;;;;13.38;11.40;;;16.20;99.90;;;;;;5010658;28;20037;-59
2021/05/11 15:37:47;;;;;;;11.75;10.55;;;16.20;99.90;;;;;;5008909;28;20030;-60
2021/05/11 15:40:15;;;;;;;11.38;10.00;;;16.10;99.90;;;;;;5007565;28;20026;-60
2021/05/11 15:42:41;;;;;;;12.65;11.27;;;16.00;99.90;;;;;;4995644;28;20026;-62
2021/05/11 15:45:08;;;;;;;12.63;10.65;;;15.90;99.90;;;;;;5006711;28;20125;-60
2021/05/11 15:47:38;;;;;;;13.80;10.80;;;15.80;99.90;;;;;;5008748;28;20026;-61
2021/05/11 15:50:05;;;;;;;17.23;11.63;;;15.60;99.90;;;;;;5010721;28;20457;-60
2021/05/11 15:52:31;;;;;;;12.00;10.50;;;15.60;99.90;;;;;;5011502;28;20038;-60
2021/05/11 15:54:57;;;;;;;11.77;10.57;;;15.50;99.90;;;;;;5010767;28;20040;-60
2021/05/11 15:57:22;;;;;;;12.85;10.27;;;15.40;99.90;;;;;;5009415;28;20555;-62
2021/05/11 15:59:48;;;;;;;12.07;10.82;;;15.40;99.90;;;;;;4993768;28;20026;-60
2021/05/11 16:02:13;;;;;;;14.02;10.25;;;15.30;99.90;;;;;;5008665;28;20105;-61
2021/05/11 16:04:39;;;;;;;14.63;11.23;;;15.30;99.90;;;;;;5010212;28;20061;-61
2021/05/11 16:07:05;;;;;;;13.35;10.48;;;15.20;99.90;;;;;;5010734;28;20034;-59
2021/05/11 16:09:31;;;;;;;13.57;11.90;;;15.20;99.90;;;;;;5006216;28;20080;-60
2021/05/11 16:11:57;;;;;;;12.18;10.55;;;15.10;99.90;;;;;;4995711;28;20034;-60
2021/05/11 16:14:23;;;;;;;13.48;9.88;;;15.10;99.90;;;;;;5001696;28;20030;-61
2021/05/11 16:16:49;;;;;;;13.50;10.40;;;15.20;99.90;;;;;;5001477;28;20480;-60
2021/05/11 16:19:14;;;;;;;11.90;9.85;;;15.10;99.90;;;;;;5011383;28;20018;-59
2021/05/11 16:21:40;;;;;;;17.58;11.35;;;15.10;99.90;;;;;;4977084;28;20038;-59
2021/05/11 16:24:06;;;;;;;14.38;11.48;;;15.10;99.90;;;;;;5012249;28;20026;-60
2021/05/11 16:26:32;;;;;;;16.80;11.75;;;15.20;99.90;;;;;;5012931;28;20532;-61
2021/05/11 16:28:58;;;;;;;16.90;12.38;;;15.20;99.90;;;;;;4998622;28;20040;-61
2021/05/11 16:31:24;;;;;;;19.42;11.82;;;15.20;99.90;;;;;;5017097;28;20029;-61
2021/05/11 16:33:50;;;;;;;17.98;12.52;;;15.20;99.90;;;;;;5010024;28;20507;-61
2021/05/11 16:36:17;;;;;;;14.63;11.50;;;15.30;99.90;;;;;;5007032;28;20041;-61
2021/05/11 16:38:42;;;;;;;15.82;11.80;;;15.30;99.90;;;;;;5001401;28;20046;-61
2021/05/11 16:41:09;;;;;;;16.08;11.98;;;15.30;99.90;;;;;;5007793;28;20593;-62
2021/05/11 16:43:35;;;;;;;19.42;13.15;;;15.30;99.90;;;;;;5018099;28;20526;-60
2021/05/11 16:46:06;;;;;;;17.00;12.00;;;15.20;99.90;;;;;;5012406;28;20038;-59
2021/05/11 16:48:32;;;;;;;17.67;12.40;;;15.10;99.90;;;;;;5010984;28;20504;-61
2021/05/11 16:50:59;;;;;;;18.60;12.68;;;15.10;99.90;;;;;;4990945;28;20030;-61
2021/05/11 16:53:24;;;;;;;17.45;12.38;;;14.90;99.90;;;;;;5008727;28;20045;-60
2021/05/11 16:55:50;;;;;;;18.02;13.43;;;14.90;99.90;;;;;;4989561;28;20034;-61
2021/05/11 16:58:16;;;;;;;22.85;13.25;;;14.90;99.90;;;;;;4999307;28;20026;-61
2021/05/11 17:00:43;;;;;;;20.80;15.50;;;14.90;99.90;;;;;;5014176;28;20414;-62
2021/05/11 17:03:10;;;;;;;16.08;12.85;;;14.80;99.90;;;;;;5003873;28;20041;-61
2021/05/11 17:05:36;;;;;;;22.02;16.00;;;14.90;99.90;;;;;;5004623;28;20036;-62
2021/05/11 17:08:04;;;;;;;25.27;16.85;;;14.80;99.90;;;;;;5002316;28;20521;-61